Tunnerville, South Dakota
Current Conditions -  °F | °C
As of 10:54 AM on Saturday 22 Nov 2014 (Local Time) from KCNB Reporting Station
Clear Clear  
Wind Chill:   Ceiling: Unl
Heat Index:   Visibility: 10mi
Dew Point:   Wind: 9mph
Humidity: 76%   Direction: 220°SW
Pressure: 29.65"   Gusts: NA
Location:  44.7895°N, 96.7201°W
Report Text: KCNB 221654Z AUTO 22008KT 10SM CLR 04/00 A2965 RMK AO2 T00371002
Loading
Personal Weather Stations






























Interactive Weather Map New forecast layout! Learn more

10-Day Weather Forecast

Advertisements
Track Severe Weather on mobile